Terminal Aerodrome Forecast
Issued by NWS Cleveland, OH

Home | Current Version | Previous Version | Graphics & Text | Print | Product List | Glossary On
Versions: 1 2 3 4 5 6 7 8 9 10 11 12 13
627
FTUS41 KCLE 231122
TAFERI
TAF
KERI 231122Z 2312/2412 16002KT P6SM FEW250
     FM231600 35008KT P6SM FEW250
     FM240200 17002KT P6SM FEW250=

USA.gov is the U.S. government's official web portal to all federal, state and local government web resources and services.